EPKK

John Paul II International Kraków-Balice Airport

Kraków, Poland
METAR EPKK 210530Z 16002KT CAVOK 19/15 Q1019
Observed Flight Rules
Aug-21 @ 05:30 UTC (12 hours ago) Visual Flight Rules
Wind Visibility Clouds
160° at 2 knots 10,000+ meters
  • Clear skies
Temperatures Readings
Current 19°C / 66°F
Dewpoint 15°C / 59°F
Humidity 78%
Altimeter 30.09" Hg
Pressure 1019 hPa
Elevation 237
METAR EPKK 210530Z 16002KT CAVOK 19/15 Q1019
Observed Flight Rules
Aug-21 @ 05:30 UTC
(12 hours ago)
VFR
Wind Visibility
160° at 2 knots 10,000+ meters
Clouds
  • Clear skies
Temperature Dewpoint
19°C / 66°F 15°C / 59°F
Humidity Altimeter Pressure
78% 30.09" Hg 1019 hPa